Time;durP1;ratioP1;P1;durP2;ratioP2;P2;SDS_P1;SDS_P2;PMS_P1;PMS_P2;Temp;Humidity;BMP_temperature;BMP_pressure;BME280_temperature;BME280_humidity;BME280_pressure;Samples;Min_cycle;Max_cycle;Signal;HPM_P1;HPM_P2
2021/11/08 00:01:45;;;;;;;93.30;39.80;;;;;;;12.71;75.42;99810.63;5052237;28;20031;-74
2021/11/08 00:04:11;;;;;;;66.13;40.30;;;;;;;12.81;75.45;99823.56;5053570;28;20024;-74
2021/11/08 00:06:37;;;;;;;62.72;39.22;;;;;;;12.50;75.60;99778.75;5053698;28;20500;-74
2021/11/08 00:09:04;;;;;;;99.22;40.42;;;;;;;12.92;75.91;99839.00;5053814;28;20028;-74
2021/11/08 00:11:30;;;;;;;147.10;43.92;;;;;;;12.95;75.60;99846.56;5053669;28;20025;-73
2021/11/08 00:13:57;;;;;;;105.85;40.30;;;;;;;12.89;75.41;99841.19;5053615;28;20093;-74
2021/11/08 00:21:36;;;;;;;63.97;30.25;;;;;;;12.81;75.38;99838.66;5053511;28;20040;-74
2021/11/08 00:24:02;;;;;;;39.28;29.52;;;;;;;12.74;75.79;99820.03;5053361;28;20029;-74
2021/11/08 00:26:28;;;;;;;38.00;30.10;;;;;;;12.75;75.40;99824.31;5053612;28;20025;-73
2021/11/08 00:28:54;;;;;;;31.20;24.90;;;;;;;12.79;75.51;99814.16;5052980;28;20074;-74
2021/11/08 00:31:20;;;;;;;29.27;25.13;;;;;;;12.71;74.76;99802.66;5053153;28;20029;-74
2021/11/08 00:33:45;;;;;;;28.00;24.98;;;;;;;12.49;74.74;99757.75;5053135;28;20036;-74
2021/11/08 00:36:11;;;;;;;25.80;22.95;;;;;;;12.74;74.66;99806.78;5053129;28;20033;-74
2021/11/08 00:38:37;;;;;;;27.13;23.10;;;;;;;12.58;74.71;99776.00;5053018;28;20025;-74
2021/11/08 00:41:03;;;;;;;42.90;29.85;;;;;;;12.82;74.86;99809.31;5053002;28;20029;-74
2021/11/08 00:43:29;;;;;;;29.40;23.58;;;;;;;12.47;74.70;99749.97;5053070;28;20040;-74
2021/11/08 00:45:55;;;;;;;27.70;21.83;;;;;;;12.38;74.18;99740.50;5053014;28;20029;-73
2021/11/08 00:48:24;;;;;;;34.83;25.25;;;;;;;12.71;74.52;99788.59;5052835;28;20504;-73
2021/11/08 00:50:51;;;;;;;31.58;26.17;;;;;;;12.69;74.57;99772.06;5052864;28;20104;-74
2021/11/08 00:53:18;;;;;;;35.30;26.85;;;;;;;12.53;74.55;99761.66;5053066;28;20029;-74
2021/11/08 00:55:45;;;;;;;32.90;25.25;;;;;;;12.73;74.73;99768.88;5052689;28;20490;-74
2021/11/08 00:58:32;;;;;;;40.63;27.38;;;;;;;12.67;74.26;99758.19;5052663;28;20104;-74
2021/11/08 01:01:02;;;;;;;63.28;33.38;;;;;;;12.79;74.29;99772.59;5052517;28;20028;-74
2021/11/08 01:03:30;;;;;;;39.42;28.17;;;;;;;12.71;74.61;99752.34;5052597;28;20035;-74
2021/11/08 01:05:56;;;;;;;44.75;28.95;;;;;;;12.57;74.50;99715.25;5052606;28;20490;-74
2021/11/08 01:08:22;;;;;;;50.03;31.58;;;;;;;12.64;74.66;99724.13;5052544;28;20107;-74
2021/11/08 01:10:47;;;;;;;42.40;29.70;;;;;;;12.85;74.96;99747.19;5052250;28;20028;-74
2021/11/08 01:13:13;;;;;;;44.50;30.85;;;;;;;12.85;75.02;99739.22;5052337;28;20571;-74
2021/11/08 01:15:38;;;;;;;59.95;32.00;;;;;;;12.62;74.82;99699.63;5052222;28;20033;-74
2021/11/08 01:18:04;;;;;;;47.55;30.27;;;;;;;12.76;75.18;99722.63;5052026;28;20049;-74
2021/11/08 01:20:34;;;;;;;48.95;30.40;;;;;;;12.50;75.22;99677.28;5052446;28;20029;-74
2021/11/08 01:23:03;;;;;;;62.22;33.22;;;;;;;12.91;75.30;99735.81;5050966;28;20052;-74
2021/11/08 01:25:29;;;;;;;59.00;33.22;;;;;;;12.89;75.27;99730.72;5052234;28;20040;-74
2021/11/08 01:27:57;;;;;;;69.30;33.97;;;;;;;12.86;75.32;99722.31;5052064;28;20391;-74
2021/11/08 01:30:24;;;;;;;58.08;33.28;;;;;;;12.93;75.73;99726.69;5052115;28;20405;-74
2021/11/08 01:32:59;;;;;;;55.30;32.28;;;;;;;12.95;75.80;99714.06;5052009;28;20021;-74
2021/11/08 01:38:05;;;;;;;54.60;34.55;;;;;;;13.01;76.03;99708.00;5052144;28;20131;-74
2021/11/08 01:40:32;;;;;;;55.13;33.38;;;;;;;13.05;75.85;99708.44;5051044;28;20104;-74
2021/11/08 01:42:57;;;;;;;65.60;37.58;;;;;;;13.10;75.46;99707.88;5051834;28;20025;-74
2021/11/08 01:45:24;;;;;;;63.00;37.03;;;;;;;12.97;75.63;99690.84;5051632;28;20592;-74
2021/11/08 01:47:49;;;;;;;67.30;39.50;;;;;;;13.01;75.68;99681.50;5051561;28;20021;-74
2021/11/08 01:50:15;;;;;;;63.95;38.25;;;;;;;12.77;75.70;99639.50;5051682;28;20032;-74
2021/11/08 01:52:40;;;;;;;65.75;38.22;;;;;;;13.18;76.04;99699.81;5051565;28;20033;-74
2021/11/08 01:55:06;;;;;;;72.55;40.40;;;;;;;13.11;76.00;99683.00;5050321;28;20035;-74
2021/11/08 01:57:31;;;;;;;73.03;41.78;;;;;;;12.79;75.77;99634.81;5051825;28;20025;-74
2021/11/08 02:00:00;;;;;;;81.40;44.10;;;;;;;12.71;75.87;99619.06;5051530;28;20096;-74
2021/11/08 02:02:26;;;;;;;84.72;44.33;;;;;;;12.79;76.36;99621.56;5050310;28;20036;-74
2021/11/08 02:04:51;;;;;;;83.63;46.03;;;;;;;13.00;76.42;99657.84;5051369;28;20028;-74
2021/11/08 02:07:17;;;;;;;78.10;41.95;;;;;;;13.04;76.31;99667.03;5051556;28;20497;-73
2021/11/08 02:09:42;;;;;;;84.78;44.17;;;;;;;13.22;76.79;99693.13;5051413;28;20025;-74
2021/11/08 02:12:09;;;;;;;91.53;46.15;;;;;;;12.86;76.65;99624.28;5051383;28;20017;-74
2021/11/08 02:14:38;;;;;;;75.82;41.15;;;;;;;12.81;76.76;99616.91;5051659;28;20025;-74
2021/11/08 02:17:03;;;;;;;83.85;43.42;;;;;;;13.21;76.86;99686.19;5051200;28;20024;-74
2021/11/08 02:19:29;;;;;;;90.25;45.85;;;;;;;13.16;77.09;99665.50;5051067;28;20029;-74
2021/11/08 02:21:56;;;;;;;106.43;44.65;;;;;;;12.93;77.10;99635.75;5051372;28;20025;-74
2021/11/08 02:24:25;;;;;;;116.55;43.22;;;;;;;12.84;77.10;99615.69;5051400;28;20103;-74
2021/11/08 02:26:50;;;;;;;92.15;42.83;;;;;;;13.09;77.18;99661.16;5051322;28;20409;-74
2021/11/08 02:29:16;;;;;;;94.75;40.78;;;;;;;13.04;77.54;99653.78;5051249;28;20032;-74
2021/11/08 02:31:43;;;;;;;83.18;40.22;;;;;;;12.87;77.40;99625.91;5051373;28;20025;-74
2021/11/08 02:34:09;;;;;;;68.68;37.55;;;;;;;13.14;77.75;99680.78;5049930;28;20036;-73
2021/11/08 02:36:41;;;;;;;71.63;38.60;;;;;;;13.13;77.54;99676.50;5050975;28;20035;-74
2021/11/08 02:39:07;;;;;;;87.70;41.28;;;;;;;13.07;77.57;99674.63;5050927;28;20036;-74
2021/11/08 02:41:32;;;;;;;69.35;41.40;;;;;;;12.99;77.63;99661.50;5051166;28;20025;-74
2021/11/08 02:44:00;;;;;;;73.85;42.38;;;;;;;12.75;77.36;99609.72;5051039;28;20104;-73
2021/11/08 02:46:26;;;;;;;78.38;44.55;;;;;;;13.16;77.10;99665.50;5051188;28;20099;-74
2021/11/08 02:48:52;;;;;;;64.80;38.72;;;;;;;13.18;77.51;99657.41;5050969;28;20409;-74
2021/11/08 02:53:46;;;;;;;66.82;38.88;;;;;;;13.18;77.11;99665.34;5055158;28;20021;-74
2021/11/08 02:56:13;;;;;;;62.83;37.58;;;;;;;13.18;76.91;99662.69;5055102;28;20478;-73
2021/11/08 02:58:42;;;;;;;64.80;39.53;;;;;;;12.78;76.89;99600.56;5054819;28;20025;-73
2021/11/08 03:01:09;;;;;;;50.75;34.45;;;;;;;12.76;76.61;99608.69;5054786;28;20044;-74
2021/11/08 03:03:39;;;;;;;47.10;32.55;;;;;;;12.67;76.39;99594.78;5054722;28;20032;-74
2021/11/08 03:08:43;;;;;;;47.70;31.92;;;;;;;12.85;77.05;99617.34;5054953;28;20033;-74
2021/11/08 03:11:10;;;;;;;43.92;31.85;;;;;;;13.15;76.55;99657.75;5054793;28;20482;-74
2021/11/08 03:13:38;;;;;;;46.95;32.67;;;;;;;13.13;76.58;99660.59;5054818;28;20525;-74
2021/11/08 03:16:24;;;;;;;46.05;33.92;;;;;;;12.76;76.14;99594.63;5054720;28;20512;-73
2021/11/08 03:18:55;;;;;;;45.40;31.05;;;;;;;13.07;76.45;99656.06;5053099;28;20099;-74
2021/11/08 03:21:22;;;;;;;41.47;30.33;;;;;;;13.04;76.31;99648.50;5054884;28;20104;-73
2021/11/08 03:23:50;;;;;;;47.03;33.58;;;;;;;13.03;76.12;99644.19;5054559;28;20029;-74
2021/11/08 03:29:00;;;;;;;43.17;33.80;;;;;;;13.03;75.86;99646.84;5054942;28;20040;-74
2021/11/08 03:31:29;;;;;;;43.30;33.72;;;;;;;13.00;75.80;99649.88;5054466;28;20032;-73
2021/11/08 03:33:55;;;;;;;41.22;31.17;;;;;;;12.47;76.14;99577.03;5054274;28;20044;-74
2021/11/08 03:36:20;;;;;;;42.83;30.50;;;;;;;12.75;76.01;99611.53;5054711;28;20485;-74
2021/11/08 03:38:45;;;;;;;43.15;31.92;;;;;;;12.60;75.84;99603.63;5054378;28;20037;-74
2021/11/08 03:41:11;;;;;;;42.33;31.52;;;;;;;12.97;75.93;99647.63;5054314;28;20100;-74
2021/11/08 03:43:37;;;;;;;41.80;30.02;;;;;;;12.58;75.64;99585.28;5054187;28;20036;-74
2021/11/08 03:46:03;;;;;;;39.60;30.65;;;;;;;12.95;75.62;99636.38;5054271;28;20421;-74
2021/11/08 03:48:29;;;;;;;41.22;31.27;;;;;;;12.66;75.39;99598.44;5053963;28;20075;-74
2021/11/08 03:50:55;;;;;;;42.42;30.48;;;;;;;12.57;75.56;99583.66;5054140;28;20037;-73
2021/11/08 03:53:21;;;;;;;43.42;30.83;;;;;;;12.61;75.62;99599.97;5054089;28;20048;-74
2021/11/08 03:55:48;;;;;;;41.47;28.58;;;;;;;12.87;75.34;99636.53;5053817;28;20079;-74
2021/11/08 03:58:14;;;;;;;40.55;30.75;;;;;;;12.83;75.38;99640.56;5053689;28;20059;-74
2021/11/08 04:00:41;;;;;;;44.00;32.33;;;;;;;12.81;75.56;99639.94;5053773;28;20122;-73
2021/11/08 04:03:09;;;;;;;42.40;30.88;;;;;;;12.78;75.65;99633.19;5052952;28;20029;-74
2021/11/08 04:05:36;;;;;;;41.20;30.67;;;;;;;12.72;75.48;99626.00;5053688;28;20098;-73
2021/11/08 04:08:08;;;;;;;37.08;28.35;;;;;;;12.77;75.18;99636.03;5053677;28;20115;-74
2021/11/08 04:10:35;;;;;;;42.13;30.65;;;;;;;12.77;75.05;99638.66;5053574;28;20555;-74
2021/11/08 04:13:04;;;;;;;36.65;28.92;;;;;;;12.70;75.30;99633.31;5053606;28;20151;-74
2021/11/08 04:15:42;;;;;;;30.88;26.08;;;;;;;12.67;75.39;99634.50;5053548;28;20056;-74
2021/11/08 04:18:20;;;;;;;42.65;33.17;;;;;;;12.60;74.92;99632.78;5053380;28;20041;-73
2021/11/08 04:20:47;;;;;;;34.55;27.77;;;;;;;12.56;74.83;99623.56;5053442;28;20493;-74
2021/11/08 04:23:15;;;;;;;30.88;27.00;;;;;;;12.62;74.92;99630.75;5053421;28;20029;-73
2021/11/08 04:25:41;;;;;;;35.63;28.42;;;;;;;12.61;75.07;99616.69;5053339;28;20033;-74
2021/11/08 04:28:07;;;;;;;36.42;28.45;;;;;;;12.66;74.48;99619.63;5053071;28;20082;-74
2021/11/08 04:30:37;;;;;;;38.65;28.83;;;;;;;12.65;74.56;99610.03;5053325;28;20444;-74
2021/11/08 04:33:15;;;;;;;39.08;29.40;;;;;;;12.40;74.77;99572.50;5053201;28;20417;-74
2021/11/08 04:36:01;;;;;;;38.00;29.33;;;;;;;12.79;74.90;99624.22;5053169;28;20501;-73
2021/11/08 04:51:21;;;;;;;77.85;41.75;;;;;;;12.90;74.95;99623.72;5053131;28;20036;-74
2021/11/08 05:21:33;;;;;;;55.05;33.10;;;;;;;13.08;76.12;99627.72;5052626;28;20121;-74
2021/11/08 05:31:55;;;;;;;67.55;37.67;;;;;;;13.09;75.24;99646.09;5052258;28;20033;-74
2021/11/08 05:34:21;;;;;;;62.45;35.97;;;;;;;13.11;75.44;99654.66;5051917;28;20108;-74
2021/11/08 05:36:48;;;;;;;70.50;37.38;;;;;;;12.86;75.34;99618.97;5052093;28;20060;-74
2021/11/08 05:39:15;;;;;;;86.22;41.10;;;;;;;12.83;75.78;99608.75;5051955;28;20025;-74
2021/11/08 05:41:41;;;;;;;89.57;42.72;;;;;;;13.09;75.63;99653.22;5051983;28;20059;-74
2021/11/08 05:44:07;;;;;;;83.05;40.22;;;;;;;13.13;75.91;99651.81;5051899;28;20473;-74
2021/11/08 05:46:34;;;;;;;85.50;46.00;;;;;;;13.08;76.00;99647.09;5052002;28;20055;-74
2021/11/08 05:49:00;;;;;;;100.88;47.72;;;;;;;13.07;75.73;99645.47;5051737;28;20016;-74
2021/11/08 05:51:26;;;;;;;100.85;51.15;;;;;;;12.78;76.25;99603.22;5051700;28;20104;-74
2021/11/08 05:53:52;;;;;;;108.15;51.05;;;;;;;13.15;76.08;99649.78;5051812;28;20025;-74
2021/11/08 05:59:16;;;;;;;109.68;49.88;;;;;;;13.16;76.35;99659.38;5051454;28;20112;-74
2021/11/08 06:50:42;;;;;;;125.30;48.70;;;;;;;13.40;77.42;99652.91;5050581;28;20082;-75
2021/11/08 06:53:16;;;;;;;147.45;53.08;;;;;;;13.51;77.30;99663.78;5048760;28;20464;-74
2021/11/08 06:55:42;;;;;;;102.32;49.00;;;;;;;13.50;77.12;99656.03;5047365;28;20024;-74
2021/11/08 06:58:14;;;;;;;79.50;43.47;;;;;;;13.56;77.08;99656.06;5047225;28;20098;-75
2021/11/08 07:00:39;;;;;;;95.60;46.15;;;;;;;13.54;77.17;99639.53;5053843;28;20021;-74
2021/11/08 07:03:05;;;;;;;94.70;49.60;;;;;;;13.61;77.05;99640.38;5049903;28;20032;-74
2021/11/08 07:05:30;;;;;;;87.13;48.03;;;;;;;13.39;76.86;99585.78;5050374;28;20101;-74
2021/11/08 07:07:56;;;;;;;100.72;51.30;;;;;;;13.34;77.09;99588.97;5050974;28;20051;-74
2021/11/08 07:10:22;;;;;;;99.22;50.78;;;;;;;13.69;77.01;99636.75;5050747;28;20031;-74
2021/11/08 07:12:49;;;;;;;98.15;51.92;;;;;;;13.69;77.03;99639.41;5051399;28;20409;-74
2021/11/08 07:15:15;;;;;;;97.75;51.53;;;;;;;13.70;77.05;99637.56;5048815;28;20037;-74
2021/11/08 07:17:40;;;;;;;104.38;52.42;;;;;;;13.65;76.91;99636.31;5054988;28;20090;-74
2021/11/08 07:20:06;;;;;;;110.13;51.17;;;;;;;13.51;76.43;99623.19;5048613;28;20087;-74
2021/11/08 07:22:32;;;;;;;96.25;50.08;;;;;;;13.54;76.74;99617.50;5046562;28;20501;-75
2021/11/08 07:24:57;;;;;;;87.63;47.60;;;;;;;13.66;76.51;99651.22;5045358;28;20090;-74
2021/11/08 07:27:23;;;;;;;82.10;46.85;;;;;;;13.64;75.84;99652.44;5048233;28;20032;-74
2021/11/08 07:29:48;;;;;;;90.07;48.45;;;;;;;13.61;75.57;99655.50;5046234;28;20107;-74
2021/11/08 07:32:14;;;;;;;90.03;48.10;;;;;;;13.61;75.75;99652.84;5049227;28;20059;-74
2021/11/08 07:34:39;;;;;;;80.18;43.28;;;;;;;13.61;75.62;99650.19;5048120;28;20099;-74
2021/11/08 07:37:06;;;;;;;69.47;40.95;;;;;;;13.21;75.80;99588.09;5049386;28;20087;-74
2021/11/08 07:39:32;;;;;;;78.53;43.05;;;;;;;13.55;75.70;99640.34;5051761;28;20500;-74
2021/11/08 07:41:57;;;;;;;81.10;43.78;;;;;;;13.50;75.62;99637.47;5053073;28;20033;-74
2021/11/08 07:44:22;;;;;;;79.78;43.30;;;;;;;13.65;75.49;99656.75;5050938;28;20475;-74
2021/11/08 07:46:48;;;;;;;80.35;43.45;;;;;;;13.65;75.53;99646.13;5052701;28;20550;-74
2021/11/08 07:49:14;;;;;;;68.13;39.60;;;;;;;13.32;75.21;99598.16;5050588;28;20021;-74
2021/11/08 07:51:40;;;;;;;70.75;39.88;;;;;;;13.63;75.66;99648.16;5051269;28;20422;-74
2021/11/08 07:54:05;;;;;;;78.80;41.65;;;;;;;13.42;75.54;99609.25;5052478;28;20107;-74
2021/11/08 07:56:31;;;;;;;64.10;38.50;;;;;;;13.30;75.78;99590.38;5049349;28;20056;-75
2021/11/08 07:58:56;;;;;;;71.75;39.97;;;;;;;13.50;75.47;99613.59;5052480;28;20024;-74
2021/11/08 08:01:22;;;;;;;68.75;38.67;;;;;;;13.68;75.57;99638.59;5051139;28;20032;-74
2021/11/08 08:03:48;;;;;;;60.70;38.00;;;;;;;13.74;75.51;99639.66;5052864;28;20051;-74
2021/11/08 08:06:15;;;;;;;65.90;37.97;;;;;;;13.76;75.36;99634.13;5051932;28;20033;-74
2021/11/08 08:08:41;;;;;;;58.58;35.20;;;;;;;13.76;75.35;99636.78;5049837;28;20021;-75
2021/11/08 08:11:07;;;;;;;60.92;37.20;;;;;;;13.79;75.15;99633.75;5045649;28;20477;-74
2021/11/08 08:13:34;;;;;;;56.85;33.80;;;;;;;13.76;75.24;99628.84;5052997;28;20113;-74
2021/11/08 08:16:03;;;;;;;62.75;37.50;;;;;;;13.74;75.37;99629.03;5050689;28;20060;-74
2021/11/08 08:18:31;;;;;;;64.28;38.17;;;;;;;13.49;75.15;99594.19;5050696;28;20494;-74
2021/11/08 08:20:57;;;;;;;62.15;36.55;;;;;;;13.72;75.48;99625.75;5052780;28;20033;-74
2021/11/08 08:23:23;;;;;;;61.72;39.05;;;;;;;13.49;75.29;99586.25;5052903;28;20504;-78
2021/11/08 08:25:49;;;;;;;63.15;38.92;;;;;;;13.48;75.29;99574.00;5052604;28;20025;-78
2021/11/08 08:28:14;;;;;;;60.20;37.50;;;;;;;13.89;75.21;99642.16;5046492;28;20033;-77
2021/11/08 08:30:40;;;;;;;66.57;39.13;;;;;;;13.27;75.10;99534.28;5051220;28;20102;-78
2021/11/08 08:33:06;;;;;;;58.00;36.50;;;;;;;13.03;75.10;99493.94;5052697;28;20025;-78
2021/11/08 08:35:36;;;;;;;69.05;39.92;;;;;;;13.77;75.08;99601.28;5052221;28;20035;-78
2021/11/08 08:38:02;;;;;;;67.60;39.08;;;;;;;13.96;75.09;99616.47;5051649;28;20033;-78
2021/11/08 08:40:28;;;;;;;71.70;40.75;;;;;;;13.89;74.80;99603.16;5052542;28;20091;-78
2021/11/08 08:42:53;;;;;;;58.92;38.00;;;;;;;14.04;74.72;99612.81;5050802;28;20032;-78
2021/11/08 08:45:20;;;;;;;53.00;34.35;;;;;;;14.04;74.40;99599.56;5050248;28;20033;-78
2021/11/08 08:47:46;;;;;;;54.33;33.47;;;;;;;14.14;74.34;99615.97;5048319;28;20038;-78
2021/11/08 08:50:11;;;;;;;53.20;33.90;;;;;;;14.17;74.28;99618.22;5047954;28;20386;-77
2021/11/08 08:52:37;;;;;;;50.72;34.65;;;;;;;14.21;74.04;99614.97;5045372;28;20036;-79
2021/11/08 08:55:05;;;;;;;54.42;34.50;;;;;;;14.23;73.73;99606.78;5047447;28;20025;-78
2021/11/08 08:57:30;;;;;;;53.75;33.10;;;;;;;14.02;73.47;99575.84;5047294;28;20565;-78
2021/11/08 08:59:55;;;;;;;52.85;37.00;;;;;;;14.25;73.38;99600.25;5043327;28;20108;-78
2021/11/08 09:02:21;;;;;;;49.22;33.85;;;;;;;13.91;73.43;99534.78;5045505;28;20048;-77
2021/11/08 09:04:46;;;;;;;61.30;37.90;;;;;;;14.28;73.43;99599.84;5046531;28;20056;-78
2021/11/08 09:07:15;;;;;;;65.60;40.08;;;;;;;13.95;73.45;99538.69;5047017;28;20493;-77
2021/11/08 09:09:41;;;;;;;64.50;42.72;;;;;;;14.17;73.37;99567.75;5047310;28;20024;-77
2021/11/08 09:12:07;;;;;;;49.90;34.92;;;;;;;14.28;73.19;99573.31;5049031;28;20425;-78
2021/11/08 09:14:34;;;;;;;66.00;41.45;;;;;;;14.40;73.10;99588.66;5049136;28;20562;-77
2021/11/08 09:17:02;;;;;;;62.45;40.53;;;;;;;14.28;73.18;99557.38;5048916;28;20032;-77
2021/11/08 09:19:28;;;;;;;61.03;41.75;;;;;;;14.45;73.24;99584.41;5049237;28;20040;-77
2021/11/08 09:21:53;;;;;;;61.60;40.00;;;;;;;14.51;73.02;99578.28;5050961;28;20033;-77
2021/11/08 09:24:22;;;;;;;62.50;41.40;;;;;;;14.60;72.90;99579.72;5050354;28;20393;-74
2021/11/08 09:26:49;;;;;;;58.65;37.97;;;;;;;14.77;72.76;99579.31;5050560;28;20556;-74
2021/11/08 09:29:14;;;;;;;67.82;41.85;;;;;;;14.53;72.39;99512.47;5050620;28;20405;-74
2021/11/08 09:31:40;;;;;;;61.03;39.42;;;;;;;15.16;71.82;99566.03;5051693;28;20016;-75
2021/11/08 09:34:09;;;;;;;60.03;43.22;;;;;;;15.37;71.18;99572.13;5049420;28;20025;-75
2021/11/08 09:36:36;;;;;;;57.08;40.08;;;;;;;15.22;70.59;99516.50;5051481;28;20025;-74
2021/11/08 09:39:20;;;;;;;55.85;38.42;;;;;;;15.73;70.56;99564.50;5051186;28;20061;-74
2021/11/08 09:41:46;;;;;;;56.30;37.92;;;;;;;15.89;70.13;99560.53;5050399;28;20063;-74
2021/11/08 09:44:12;;;;;;;63.47;40.63;;;;;;;15.94;69.70;99563.38;5050105;28;20029;-74
2021/11/08 09:46:38;;;;;;;55.38;36.65;;;;;;;15.97;69.84;99565.63;5050174;28;20055;-74
2021/11/08 09:49:07;;;;;;;54.17;38.88;;;;;;;16.06;69.27;99563.53;5050133;28;20013;-74
2021/11/08 09:51:41;;;;;;;53.70;38.25;;;;;;;16.09;69.36;99563.91;5051071;28;20084;-74
2021/11/08 09:54:10;;;;;;;55.47;41.60;;;;;;;16.06;68.66;99547.53;5049787;28;20051;-74
2021/11/08 09:56:36;;;;;;;57.75;38.72;;;;;;;16.11;68.70;99539.72;5050868;28;20493;-74
2021/11/08 09:59:02;;;;;;;55.20;36.70;;;;;;;16.18;69.03;99557.31;5050361;28;20412;-74
2021/11/08 10:01:30;;;;;;;55.97;37.42;;;;;;;16.18;69.17;99557.31;5050301;28;20104;-74
2021/11/08 10:03:56;;;;;;;48.47;34.47;;;;;;;15.80;69.00;99496.06;5048909;28;20558;-74
2021/11/08 10:06:22;;;;;;;52.35;34.70;;;;;;;16.25;68.80;99553.78;5050137;28;20031;-74
2021/11/08 10:08:48;;;;;;;51.85;35.03;;;;;;;16.24;68.48;99539.66;5048881;28;20039;-74
2021/11/08 10:11:17;;;;;;;51.00;35.40;;;;;;;16.33;68.44;99541.03;5050463;28;20013;-74
2021/11/08 10:13:45;;;;;;;50.97;34.45;;;;;;;16.42;68.54;99541.59;5050663;28;20112;-74
2021/11/08 10:16:18;;;;;;;52.67;37.33;;;;;;;16.37;68.01;99526.25;5050832;28;20029;-74
2021/11/08 10:18:47;;;;;;;50.75;35.45;;;;;;;16.49;68.30;99532.53;5050841;28;20056;-75
2021/11/08 10:21:18;;;;;;;53.88;35.70;;;;;;;16.48;68.33;99520.25;5048831;28;20050;-74
2021/11/08 10:23:47;;;;;;;56.38;36.65;;;;;;;16.53;68.35;99525.72;5049977;28;20099;-74
2021/11/08 10:26:16;;;;;;;50.60;37.10;;;;;;;16.42;68.61;99517.63;5054838;28;20576;-74
2021/11/08 10:28:42;;;;;;;60.10;42.67;;;;;;;16.47;68.48;99513.28;5031237;28;20029;-73
2021/11/08 10:31:12;;;;;;;64.82;46.88;;;;;;;16.53;68.66;99504.41;5029640;28;20036;-73
2021/11/08 10:33:39;;;;;;;59.65;40.22;;;;;;;16.56;68.28;99497.00;5030743;28;20096;-74
2021/11/08 10:36:14;;;;;;;51.42;37.97;;;;;;;16.17;68.44;99427.81;5040463;28;20056;-74
2021/11/08 10:38:42;;;;;;;51.65;37.03;;;;;;;16.69;68.52;99504.94;5047543;28;20489;-73
2021/11/08 10:41:19;;;;;;;53.30;36.17;;;;;;;16.72;68.61;99493.81;5046305;28;20025;-74
2021/11/08 10:43:49;;;;;;;56.38;41.00;;;;;;;16.76;68.27;99492.34;5047930;28;20047;-74
2021/11/08 10:46:27;;;;;;;49.00;33.58;;;;;;;16.81;68.00;99490.66;5048967;28;20037;-74
2021/11/08 10:48:57;;;;;;;50.20;35.72;;;;;;;16.81;68.13;99492.50;5047068;28;20111;-74
2021/11/08 10:51:26;;;;;;;48.22;35.38;;;;;;;16.76;68.38;99473.69;5048592;28;20060;-74
2021/11/08 10:54:03;;;;;;;41.97;31.75;;;;;;;16.83;68.27;99487.78;5047400;28;20512;-73
2021/11/08 10:56:35;;;;;;;47.60;34.28;;;;;;;16.74;67.99;99465.09;5045628;28;20037;-74
2021/11/08 10:59:08;;;;;;;43.63;32.08;;;;;;;16.95;68.12;99486.00;5028265;28;20036;-74
2021/11/08 11:01:47;;;;;;;43.17;31.52;;;;;;;16.92;68.25;99493.63;5048010;28;20033;-74
2021/11/08 11:04:15;;;;;;;45.05;31.95;;;;;;;16.91;68.15;99479.50;5048640;28;20036;-74
2021/11/08 11:06:45;;;;;;;45.13;32.33;;;;;;;16.91;68.25;99471.47;5048627;28;20060;-74
2021/11/08 11:09:13;;;;;;;41.30;31.13;;;;;;;16.94;68.10;99470.22;5048497;28;20414;-74
2021/11/08 11:11:38;;;;;;;47.70;32.75;;;;;;;16.86;68.32;99466.00;5041043;28;20508;-74
2021/11/08 11:14:04;;;;;;;41.63;30.15;;;;;;;16.86;68.43;99465.19;5051827;28;20057;-73
2021/11/08 11:16:37;;;;;;;46.05;33.33;;;;;;;16.70;68.32;99435.41;5050749;28;20036;-74
2021/11/08 11:19:14;;;;;;;46.58;35.33;;;;;;;16.89;68.71;99460.22;5053491;28;20137;-74
2021/11/08 11:21:53;;;;;;;39.30;28.33;;;;;;;16.88;68.17;99442.59;5052102;28;20029;-74
2021/11/08 11:24:30;;;;;;;37.85;27.85;;;;;;;17.01;68.46;99453.13;5052489;28;20542;-74
2021/11/08 11:26:56;;;;;;;34.85;26.52;;;;;;;16.77;68.30;99408.66;5052459;28;20028;-74
2021/11/08 11:29:29;;;;;;;38.95;28.30;;;;;;;16.74;68.29;99401.09;5052387;28;20006;-74
2021/11/08 11:31:55;;;;;;;43.50;27.92;;;;;;;17.07;68.21;99444.22;5051029;28;20035;-74
2021/11/08 11:34:21;;;;;;;39.47;28.08;;;;;;;17.08;68.35;99443.19;5050629;28;20457;-74
2021/11/08 11:36:47;;;;;;;40.13;28.98;;;;;;;17.11;68.35;99437.44;5048873;28;20074;-74
2021/11/08 11:39:17;;;;;;;40.72;27.60;;;;;;;16.90;68.23;99399.69;5050896;28;20418;-74
2021/11/08 11:41:45;;;;;;;42.58;28.55;;;;;;;17.15;68.29;99435.97;5039511;28;20516;-74
2021/11/08 11:44:15;;;;;;;38.15;28.50;;;;;;;17.15;68.09;99432.47;5052041;28;20032;-74
2021/11/08 11:46:44;;;;;;;37.80;27.02;;;;;;;17.18;68.14;99432.03;5053345;28;20045;-75
2021/11/08 11:49:10;;;;;;;35.67;25.77;;;;;;;17.19;68.47;99422.97;5053322;28;20143;-74
2021/11/08 11:51:49;;;;;;;40.45;27.67;;;;;;;17.16;68.43;99420.75;5051729;28;20040;-74
2021/11/08 11:54:17;;;;;;;33.08;25.60;;;;;;;16.94;68.35;99385.69;5053511;28;20043;-74
2021/11/08 11:56:45;;;;;;;41.75;32.75;;;;;;;17.22;68.66;99425.22;5052994;28;20110;-74
2021/11/08 11:59:12;;;;;;;35.47;27.70;;;;;;;16.87;68.63;99366.28;5051947;28;20033;-74
2021/11/08 12:01:38;;;;;;;37.33;29.10;;;;;;;17.21;68.50;99423.56;5052214;28;20056;-74
2021/11/08 12:04:05;;;;;;;37.30;27.40;;;;;;;17.17;68.70;99424.25;5050556;28;20099;-74
2021/11/08 12:06:35;;;;;;;37.20;28.85;;;;;;;17.13;68.83;99426.53;5052362;28;20059;-74
2021/11/08 12:09:05;;;;;;;38.60;28.95;;;;;;;17.10;68.89;99411.81;5052690;28;20040;-74
2021/11/08 12:11:38;;;;;;;42.05;32.30;;;;;;;17.09;69.06;99422.66;5053085;28;20044;-74
2021/11/08 12:14:12;;;;;;;44.72;34.90;;;;;;;17.06;69.23;99423.94;5052247;28;20047;-74
2021/11/08 12:16:52;;;;;;;43.72;33.40;;;;;;;17.10;68.71;99414.47;5053261;28;20049;-74
2021/11/08 12:19:30;;;;;;;36.65;27.63;;;;;;;17.28;68.60;99410.16;5053008;28;20037;-74
2021/11/08 12:21:57;;;;;;;37.65;30.27;;;;;;;17.20;68.46;99391.78;5053132;28;20044;-75
2021/11/08 12:24:28;;;;;;;47.42;37.40;;;;;;;17.27;68.50;99401.34;5051829;28;20036;-74
2021/11/08 12:27:03;;;;;;;43.92;34.97;;;;;;;17.31;68.34;99394.50;5052869;28;20021;-74
2021/11/08 12:29:29;;;;;;;45.78;32.58;;;;;;;17.38;68.41;99405.91;5052353;28;20024;-74
2021/11/08 12:32:11;;;;;;;44.25;33.55;;;;;;;17.38;68.42;99408.56;5052252;28;20025;-74
2021/11/08 12:34:39;;;;;;;48.38;36.08;;;;;;;17.38;68.46;99405.09;5051011;28;20028;-74
2021/11/08 12:37:05;;;;;;;46.42;36.60;;;;;;;17.40;68.56;99411.03;5048431;28;20040;-74
2021/11/08 12:39:31;;;;;;;45.40;35.17;;;;;;;17.20;68.57;99373.09;5070496;28;20090;-74
2021/11/08 12:42:03;;;;;;;45.08;32.13;;;;;;;17.37;68.74;99396.28;5046270;28;20028;-73
2021/11/08 12:44:44;;;;;;;38.75;30.55;;;;;;;17.40;68.52;99419.84;5044644;28;20412;-74
2021/11/08 12:47:12;;;;;;;37.80;29.00;;;;;;;17.02;68.72;99349.91;5043993;28;20028;-75
2021/11/08 12:49:50;;;;;;;38.22;30.75;;;;;;;17.24;68.70;99382.28;5049786;28;20090;-74
2021/11/08 12:52:40;;;;;;;44.55;34.67;;;;;;;17.43;68.50;99416.72;5039981;28;20027;-74
2021/11/08 12:55:10;;;;;;;47.63;38.88;;;;;;;17.45;68.36;99417.31;5049068;28;20025;-74
2021/11/08 12:57:36;;;;;;;40.25;32.70;;;;;;;17.47;68.34;99417.09;5048181;28;20091;-74
2021/11/08 13:00:28;;;;;;;39.25;33.13;;;;;;;17.44;68.09;99417.53;5046792;28;20056;-75
2021/11/08 13:02:58;;;;;;;43.40;33.35;;;;;;;17.44;68.42;99428.22;5031631;28;20060;-74
2021/11/08 13:05:33;;;;;;;41.60;31.77;;;;;;;17.42;68.30;99416.94;5039343;28;20039;-74
2021/11/08 13:08:00;;;;;;;41.08;33.47;;;;;;;17.42;68.25;99415.09;5052038;28;20406;-74
2021/11/08 13:10:32;;;;;;;36.67;29.85;;;;;;;17.30;68.10;99395.53;5051828;28;20024;-74
2021/11/08 13:12:58;;;;;;;35.55;29.13;;;;;;;17.47;68.17;99414.41;5047341;28;20528;-74
2021/11/08 13:15:30;;;;;;;40.10;30.83;;;;;;;17.44;68.01;99406.84;5050790;28;20050;-74
2021/11/08 13:18:03;;;;;;;38.53;30.45;;;;;;;17.50;68.22;99424.66;5048607;28;20021;-74